Steenokkerzeel, Belgium
Current Conditions -  °F | °C
As of 9:20 PM on Monday 24 Nov 2014 (Local Time) from EBBR Reporting Station
Clear Clear  
Wind Chill: 41°   Ceiling: Unl
Heat Index: 41°   Visibility: 6mi
Dew Point: 36°   Wind: 3mph
Humidity: 81%   Direction: 80°E
Pressure: 30.33"   Gusts: NA
Location:  50.92°N, 4.51°E
Report Text: EBBR 242020Z 08003KT CAVOK 05/02 Q1027 NOSIG
Loading
Personal Weather Stations






























Interactive Weather Map New forecast layout! Learn more

10-Day Weather Forecast

Advertisements
Track Severe Weather on mobile